sensor_id;sensor_type;location;lat;lon;timestamp;temperature;humidity
21778;DHT22;11050;52.222;20.916;2023-02-28T00:00:24;-2.80;96.80
21778;DHT22;11050;52.222;20.916;2023-02-28T00:02:50;-2.80;97.20
21778;DHT22;11050;52.222;20.916;2023-02-28T00:05:18;-2.80;97.70
21778;DHT22;11050;52.222;20.916;2023-02-28T00:07:48;-2.80;98.10
21778;DHT22;11050;52.222;20.916;2023-02-28T00:10:22;-2.80;98.50
21778;DHT22;11050;52.222;20.916;2023-02-28T00:12:54;-2.80;99.00
21778;DHT22;11050;52.222;20.916;2023-02-28T00:15:23;-2.90;99.50
21778;DHT22;11050;52.222;20.916;2023-02-28T00:17:49;-2.90;99.90
21778;DHT22;11050;52.222;20.916;2023-02-28T00:20:15;-2.90;99.90
21778;DHT22;11050;52.222;20.916;2023-02-28T00:22:44;-2.90;99.90
21778;DHT22;11050;52.222;20.916;2023-02-28T00:25:15;-2.90;99.90
21778;DHT22;11050;52.222;20.916;2023-02-28T00:27:43;-2.90;99.90
21778;DHT22;11050;52.222;20.916;2023-02-28T00:30:13;-3.00;99.90
21778;DHT22;11050;52.222;20.916;2023-02-28T00:32:41;-3.00;99.90
21778;DHT22;11050;52.222;20.916;2023-02-28T00:35:07;-3.00;99.90
21778;DHT22;11050;52.222;20.916;2023-02-28T00:37:33;-3.00;99.90
21778;DHT22;11050;52.222;20.916;2023-02-28T00:39:59;-3.00;99.90
21778;DHT22;11050;52.222;20.916;2023-02-28T00:42:25;-3.00;99.90
21778;DHT22;11050;52.222;20.916;2023-02-28T00:44:51;-3.10;99.90
21778;DHT22;11050;52.222;20.916;2023-02-28T00:47:17;-3.10;99.90
21778;DHT22;11050;52.222;20.916;2023-02-28T00:49:43;-3.10;99.90
21778;DHT22;11050;52.222;20.916;2023-02-28T00:52:09;-3.10;99.90
21778;DHT22;11050;52.222;20.916;2023-02-28T00:54:35;-3.10;99.90
21778;DHT22;11050;52.222;20.916;2023-02-28T00:57:01;-3.10;99.90
21778;DHT22;11050;52.222;20.916;2023-02-28T00:59:27;-3.10;99.90
21778;DHT22;11050;52.222;20.916;2023-02-28T01:01:52;-3.20;99.90
21778;DHT22;11050;52.222;20.916;2023-02-28T01:04:18;-3.20;99.90
21778;DHT22;11050;52.222;20.916;2023-02-28T01:06:44;-3.20;99.90
21778;DHT22;11050;52.222;20.916;2023-02-28T01:09:10;-3.20;99.90
21778;DHT22;11050;52.222;20.916;2023-02-28T01:11:36;-3.20;99.90
21778;DHT22;11050;52.222;20.916;2023-02-28T01:14:02;-3.20;99.90
21778;DHT22;11050;52.222;20.916;2023-02-28T01:16:29;-3.20;99.90
21778;DHT22;11050;52.222;20.916;2023-02-28T01:18:55;-3.20;99.90
21778;DHT22;11050;52.222;20.916;2023-02-28T01:21:21;-3.30;99.90
21778;DHT22;11050;52.222;20.916;2023-02-28T01:23:48;-3.30;99.90
21778;DHT22;11050;52.222;20.916;2023-02-28T01:26:16;-3.30;99.90
21778;DHT22;11050;52.222;20.916;2023-02-28T01:28:44;-3.30;99.90
21778;DHT22;11050;52.222;20.916;2023-02-28T01:31:10;-3.30;99.90
21778;DHT22;11050;52.222;20.916;2023-02-28T01:33:37;-3.30;99.90
21778;DHT22;11050;52.222;20.916;2023-02-28T01:36:06;-3.30;99.90
21778;DHT22;11050;52.222;20.916;2023-02-28T01:38:35;-3.40;99.90
21778;DHT22;11050;52.222;20.916;2023-02-28T01:41:01;-3.40;99.90
21778;DHT22;11050;52.222;20.916;2023-02-28T01:43:35;-3.40;99.90
21778;DHT22;11050;52.222;20.916;2023-02-28T01:46:18;-3.40;99.90
21778;DHT22;11050;52.222;20.916;2023-02-28T01:49:01;-3.40;99.90
21778;DHT22;11050;52.222;20.916;2023-02-28T01:51:46;-3.50;99.90
21778;DHT22;11050;52.222;20.916;2023-02-28T01:54:21;-3.50;99.90
21778;DHT22;11050;52.222;20.916;2023-02-28T01:56:57;-3.50;99.90
21778;DHT22;11050;52.222;20.916;2023-02-28T01:59:42;-3.60;99.90
21778;DHT22;11050;52.222;20.916;2023-02-28T02:02:19;-3.60;99.90
21778;DHT22;11050;52.222;20.916;2023-02-28T02:04:54;-3.50;99.90
21778;DHT22;11050;52.222;20.916;2023-02-28T02:07:39;-3.60;99.90
21778;DHT22;11050;52.222;20.916;2023-02-28T02:10:14;-3.60;99.90
21778;DHT22;11050;52.222;20.916;2023-02-28T02:26:16;-3.60;99.90
21778;DHT22;11050;52.222;20.916;2023-02-28T02:38:09;-3.60;99.90
21778;DHT22;11050;52.222;20.916;2023-02-28T02:41:05;-3.60;99.90
21778;DHT22;11050;52.222;20.916;2023-02-28T02:43:45;-3.70;99.90
21778;DHT22;11050;52.222;20.916;2023-02-28T02:46:24;-3.70;99.90
21778;DHT22;11050;52.222;20.916;2023-02-28T02:49:07;-3.70;99.90
21778;DHT22;11050;52.222;20.916;2023-02-28T02:51:38;-3.70;99.90
21778;DHT22;11050;52.222;20.916;2023-02-28T02:54:11;-3.70;99.90
21778;DHT22;11050;52.222;20.916;2023-02-28T02:56:43;-3.70;99.90
21778;DHT22;11050;52.222;20.916;2023-02-28T02:59:15;-3.80;99.90
21778;DHT22;11050;52.222;20.916;2023-02-28T03:01:52;-3.80;99.90
21778;DHT22;11050;52.222;20.916;2023-02-28T03:04:22;-3.80;99.90
21778;DHT22;11050;52.222;20.916;2023-02-28T03:06:52;-3.70;99.90
21778;DHT22;11050;52.222;20.916;2023-02-28T03:09:25;-3.80;99.90
21778;DHT22;11050;52.222;20.916;2023-02-28T03:11:54;-3.70;99.90
21778;DHT22;11050;52.222;20.916;2023-02-28T03:17:40;-3.80;99.90
21778;DHT22;11050;52.222;20.916;2023-02-28T03:20:52;-3.80;99.90
21778;DHT22;11050;52.222;20.916;2023-02-28T03:23:42;-3.80;99.90
21778;DHT22;11050;52.222;20.916;2023-02-28T03:26:26;-3.80;99.90
21778;DHT22;11050;52.222;20.916;2023-02-28T03:29:04;-3.80;99.90
21778;DHT22;11050;52.222;20.916;2023-02-28T03:32:15;-3.80;99.90
21778;DHT22;11050;52.222;20.916;2023-02-28T03:34:55;-3.80;99.90
21778;DHT22;11050;52.222;20.916;2023-02-28T03:37:27;-3.80;99.90
21778;DHT22;11050;52.222;20.916;2023-02-28T03:40:00;-3.80;99.90
21778;DHT22;11050;52.222;20.916;2023-02-28T03:42:34;-3.90;99.90
21778;DHT22;11050;52.222;20.916;2023-02-28T03:45:12;-3.90;99.90
21778;DHT22;11050;52.222;20.916;2023-02-28T03:47:49;-3.80;99.90
21778;DHT22;11050;52.222;20.916;2023-02-28T03:50:37;-3.90;99.90
21778;DHT22;11050;52.222;20.916;2023-02-28T03:53:15;-3.80;99.90
21778;DHT22;11050;52.222;20.916;2023-02-28T03:59:05;-3.80;99.90
21778;DHT22;11050;52.222;20.916;2023-02-28T04:01:41;-3.80;99.90
21778;DHT22;11050;52.222;20.916;2023-02-28T04:04:10;-3.80;99.90
21778;DHT22;11050;52.222;20.916;2023-02-28T04:06:38;-3.80;99.90
21778;DHT22;11050;52.222;20.916;2023-02-28T04:09:07;-3.80;99.90
21778;DHT22;11050;52.222;20.916;2023-02-28T04:11:36;-3.80;99.90
21778;DHT22;11050;52.222;20.916;2023-02-28T04:14:05;-3.80;99.90
21778;DHT22;11050;52.222;20.916;2023-02-28T04:16:34;-3.80;99.90
21778;DHT22;11050;52.222;20.916;2023-02-28T04:19:05;-3.80;99.90
21778;DHT22;11050;52.222;20.916;2023-02-28T04:21:34;-3.80;99.90
21778;DHT22;11050;52.222;20.916;2023-02-28T04:24:03;-3.90;99.90
21778;DHT22;11050;52.222;20.916;2023-02-28T04:26:33;-3.90;99.90
21778;DHT22;11050;52.222;20.916;2023-02-28T04:29:02;-3.90;99.90
21778;DHT22;11050;52.222;20.916;2023-02-28T04:31:29;-4.00;99.90
21778;DHT22;11050;52.222;20.916;2023-02-28T04:33:55;-4.00;99.90
21778;DHT22;11050;52.222;20.916;2023-02-28T04:36:21;-4.00;99.90
21778;DHT22;11050;52.222;20.916;2023-02-28T04:38:49;-4.00;99.90
21778;DHT22;11050;52.222;20.916;2023-02-28T04:41:15;-4.00;99.90
21778;DHT22;11050;52.222;20.916;2023-02-28T04:43:42;-4.00;99.90
21778;DHT22;11050;52.222;20.916;2023-02-28T04:46:08;-4.10;99.90
21778;DHT22;11050;52.222;20.916;2023-02-28T04:48:36;-4.10;99.90
21778;DHT22;11050;52.222;20.916;2023-02-28T04:51:05;-4.10;99.90
21778;DHT22;11050;52.222;20.916;2023-02-28T04:53:33;-4.10;99.90
21778;DHT22;11050;52.222;20.916;2023-02-28T04:56:00;-4.10;99.90
21778;DHT22;11050;52.222;20.916;2023-02-28T04:58:26;-4.10;99.90
21778;DHT22;11050;52.222;20.916;2023-02-28T05:00:53;-4.10;99.90
21778;DHT22;11050;52.222;20.916;2023-02-28T05:03:26;-4.20;99.90
21778;DHT22;11050;52.222;20.916;2023-02-28T05:05:51;-4.20;99.90
21778;DHT22;11050;52.222;20.916;2023-02-28T05:08:17;-4.20;99.90
21778;DHT22;11050;52.222;20.916;2023-02-28T05:10:42;-4.20;99.90
21778;DHT22;11050;52.222;20.916;2023-02-28T05:13:11;-4.20;99.90
21778;DHT22;11050;52.222;20.916;2023-02-28T05:15:38;-4.20;99.90
21778;DHT22;11050;52.222;20.916;2023-02-28T05:18:04;-4.20;99.90
21778;DHT22;11050;52.222;20.916;2023-02-28T05:20:29;-4.20;99.90
21778;DHT22;11050;52.222;20.916;2023-02-28T05:22:57;-4.30;99.90
21778;DHT22;11050;52.222;20.916;2023-02-28T05:25:24;-4.20;99.90
21778;DHT22;11050;52.222;20.916;2023-02-28T05:27:50;-4.20;99.90
21778;DHT22;11050;52.222;20.916;2023-02-28T05:30:16;-4.20;99.90
21778;DHT22;11050;52.222;20.916;2023-02-28T05:32:42;-4.20;99.90
21778;DHT22;11050;52.222;20.916;2023-02-28T05:35:10;-4.20;99.90
21778;DHT22;11050;52.222;20.916;2023-02-28T05:37:37;-4.20;99.90
21778;DHT22;11050;52.222;20.916;2023-02-28T05:40:05;-4.20;99.90
21778;DHT22;11050;52.222;20.916;2023-02-28T05:42:32;-4.20;99.90
21778;DHT22;11050;52.222;20.916;2023-02-28T05:44:58;-4.20;99.90
21778;DHT22;11050;52.222;20.916;2023-02-28T05:47:24;-4.20;99.90
21778;DHT22;11050;52.222;20.916;2023-02-28T05:49:50;-4.10;99.90
21778;DHT22;11050;52.222;20.916;2023-02-28T05:52:16;-4.10;99.90
21778;DHT22;11050;52.222;20.916;2023-02-28T05:54:42;-4.10;99.90
21778;DHT22;11050;52.222;20.916;2023-02-28T05:57:08;-4.10;99.90
21778;DHT22;11050;52.222;20.916;2023-02-28T05:59:33;-4.00;99.90
21778;DHT22;11050;52.222;20.916;2023-02-28T06:01:59;-4.00;99.90
21778;DHT22;11050;52.222;20.916;2023-02-28T06:04:25;-3.90;99.90
21778;DHT22;11050;52.222;20.916;2023-02-28T06:06:50;-3.90;99.90
21778;DHT22;11050;52.222;20.916;2023-02-28T06:09:17;-3.80;99.90
21778;DHT22;11050;52.222;20.916;2023-02-28T06:11:43;-3.70;99.90
21778;DHT22;11050;52.222;20.916;2023-02-28T06:14:17;-3.60;99.90
21778;DHT22;11050;52.222;20.916;2023-02-28T06:16:44;-3.60;99.90
21778;DHT22;11050;52.222;20.916;2023-02-28T06:19:10;-3.50;99.90
21778;DHT22;11050;52.222;20.916;2023-02-28T06:21:36;-3.40;99.90
21778;DHT22;11050;52.222;20.916;2023-02-28T06:24:03;-3.30;99.90
21778;DHT22;11050;52.222;20.916;2023-02-28T06:26:30;-3.20;99.90
21778;DHT22;11050;52.222;20.916;2023-02-28T06:28:56;-3.10;99.90
21778;DHT22;11050;52.222;20.916;2023-02-28T06:31:22;-3.00;99.90
21778;DHT22;11050;52.222;20.916;2023-02-28T06:33:49;-2.90;99.90
21778;DHT22;11050;52.222;20.916;2023-02-28T06:36:15;-2.80;99.90
21778;DHT22;11050;52.222;20.916;2023-02-28T06:38:43;-2.70;99.90
21778;DHT22;11050;52.222;20.916;2023-02-28T06:41:10;-2.70;99.90
21778;DHT22;11050;52.222;20.916;2023-02-28T06:43:39;-2.50;99.90
21778;DHT22;11050;52.222;20.916;2023-02-28T06:46:08;-2.40;99.90
21778;DHT22;11050;52.222;20.916;2023-02-28T06:48:36;-2.30;99.90
21778;DHT22;11050;52.222;20.916;2023-02-28T06:51:07;-2.20;99.90
21778;DHT22;11050;52.222;20.916;2023-02-28T06:53:39;-2.20;99.90
21778;DHT22;11050;52.222;20.916;2023-02-28T06:56:07;-2.00;99.90
21778;DHT22;11050;52.222;20.916;2023-02-28T06:58:35;-1.90;99.90
21778;DHT22;11050;52.222;20.916;2023-02-28T07:01:01;-1.80;99.90
21778;DHT22;11050;52.222;20.916;2023-02-28T07:03:28;-1.70;99.90
21778;DHT22;11050;52.222;20.916;2023-02-28T07:05:53;-1.60;99.90
21778;DHT22;11050;52.222;20.916;2023-02-28T07:08:22;-1.50;99.90
21778;DHT22;11050;52.222;20.916;2023-02-28T07:10:56;-1.40;99.90
21778;DHT22;11050;52.222;20.916;2023-02-28T07:13:23;-1.30;99.90
21778;DHT22;11050;52.222;20.916;2023-02-28T07:15:57;-1.20;99.90
21778;DHT22;11050;52.222;20.916;2023-02-28T07:18:28;-1.20;99.90
21778;DHT22;11050;52.222;20.916;2023-02-28T07:20:55;-1.00;99.90
21778;DHT22;11050;52.222;20.916;2023-02-28T07:23:21;-0.90;99.90
21778;DHT22;11050;52.222;20.916;2023-02-28T07:25:47;-0.80;99.90
21778;DHT22;11050;52.222;20.916;2023-02-28T07:28:15;-0.70;99.90
21778;DHT22;11050;52.222;20.916;2023-02-28T07:30:41;-0.60;99.90
21778;DHT22;11050;52.222;20.916;2023-02-28T07:33:06;-0.60;99.90
21778;DHT22;11050;52.222;20.916;2023-02-28T07:35:32;-0.50;99.90
21778;DHT22;11050;52.222;20.916;2023-02-28T07:37:58;-0.40;99.90
21778;DHT22;11050;52.222;20.916;2023-02-28T07:40:24;-0.40;99.90
21778;DHT22;11050;52.222;20.916;2023-02-28T07:42:51;-0.30;99.90
21778;DHT22;11050;52.222;20.916;2023-02-28T07:45:17;-0.20;99.90
21778;DHT22;11050;52.222;20.916;2023-02-28T07:47:44;-0.10;99.90
21778;DHT22;11050;52.222;20.916;2023-02-28T07:50:13;0.00;99.90
21778;DHT22;11050;52.222;20.916;2023-02-28T07:52:40;0.00;99.90
21778;DHT22;11050;52.222;20.916;2023-02-28T07:55:08;0.10;99.90
21778;DHT22;11050;52.222;20.916;2023-02-28T07:57:34;0.10;99.90
21778;DHT22;11050;52.222;20.916;2023-02-28T08:00:02;0.20;99.90
21778;DHT22;11050;52.222;20.916;2023-02-28T08:02:29;0.30;99.90
21778;DHT22;11050;52.222;20.916;2023-02-28T08:04:54;0.40;99.90
21778;DHT22;11050;52.222;20.916;2023-02-28T08:07:21;0.40;99.90
21778;DHT22;11050;52.222;20.916;2023-02-28T08:09:46;0.50;99.90
21778;DHT22;11050;52.222;20.916;2023-02-28T08:12:12;0.60;99.90
21778;DHT22;11050;52.222;20.916;2023-02-28T08:14:38;0.60;99.90
21778;DHT22;11050;52.222;20.916;2023-02-28T08:17:05;0.70;99.20
21778;DHT22;11050;52.222;20.916;2023-02-28T08:19:31;0.70;98.20
21778;DHT22;11050;52.222;20.916;2023-02-28T08:21:57;0.70;97.80
21778;DHT22;11050;52.222;20.916;2023-02-28T08:24:24;0.80;97.10
21778;DHT22;11050;52.222;20.916;2023-02-28T08:26:50;0.80;96.50
21778;DHT22;11050;52.222;20.916;2023-02-28T08:29:15;0.90;94.90
21778;DHT22;11050;52.222;20.916;2023-02-28T08:31:42;0.90;93.90
21778;DHT22;11050;52.222;20.916;2023-02-28T08:34:13;0.90;92.90
21778;DHT22;11050;52.222;20.916;2023-02-28T08:36:41;0.90;92.70
21778;DHT22;11050;52.222;20.916;2023-02-28T08:39:08;0.90;92.50
21778;DHT22;11050;52.222;20.916;2023-02-28T08:41:34;1.00;92.00
21778;DHT22;11050;52.222;20.916;2023-02-28T08:44:00;1.00;92.10
21778;DHT22;11050;52.222;20.916;2023-02-28T08:46:26;1.10;92.10
21778;DHT22;11050;52.222;20.916;2023-02-28T08:48:54;1.20;91.50
21778;DHT22;11050;52.222;20.916;2023-02-28T08:51:21;1.20;90.40
21778;DHT22;11050;52.222;20.916;2023-02-28T08:53:53;1.20;90.10
21778;DHT22;11050;52.222;20.916;2023-02-28T08:56:19;1.20;90.40
21778;DHT22;11050;52.222;20.916;2023-02-28T08:58:46;1.20;90.50
21778;DHT22;11050;52.222;20.916;2023-02-28T09:03:43;1.40;90.90
21778;DHT22;11050;52.222;20.916;2023-02-28T09:06:11;1.50;89.40
21778;DHT22;11050;52.222;20.916;2023-02-28T09:08:39;1.50;88.60
21778;DHT22;11050;52.222;20.916;2023-02-28T09:11:06;1.60;89.60
21778;DHT22;11050;52.222;20.916;2023-02-28T09:13:32;1.60;87.90
21778;DHT22;11050;52.222;20.916;2023-02-28T09:16:00;1.70;87.00
21778;DHT22;11050;52.222;20.916;2023-02-28T09:18:28;1.70;86.70
21778;DHT22;11050;52.222;20.916;2023-02-28T09:20:54;1.80;86.10
21778;DHT22;11050;52.222;20.916;2023-02-28T09:23:20;1.80;85.90
21778;DHT22;11050;52.222;20.916;2023-02-28T09:25:52;1.80;86.00
21778;DHT22;11050;52.222;20.916;2023-02-28T09:28:20;1.90;85.70
21778;DHT22;11050;52.222;20.916;2023-02-28T09:30:48;1.90;85.00
21778;DHT22;11050;52.222;20.916;2023-02-28T09:33:16;1.90;84.70
21778;DHT22;11050;52.222;20.916;2023-02-28T09:35:42;2.00;85.00
21778;DHT22;11050;52.222;20.916;2023-02-28T09:38:08;2.10;84.80
21778;DHT22;11050;52.222;20.916;2023-02-28T09:40:37;2.10;84.90
21778;DHT22;11050;52.222;20.916;2023-02-28T09:43:25;2.20;84.20
21778;DHT22;11050;52.222;20.916;2023-02-28T09:48:55;2.30;82.80
21778;DHT22;11050;52.222;20.916;2023-02-28T09:51:43;2.30;82.30
21778;DHT22;11050;52.222;20.916;2023-02-28T09:54:18;2.30;82.20
21778;DHT22;11050;52.222;20.916;2023-02-28T09:56:53;2.30;82.30
21778;DHT22;11050;52.222;20.916;2023-02-28T09:59:48;2.30;82.60
21778;DHT22;11050;52.222;20.916;2023-02-28T10:05:15;2.40;80.90
21778;DHT22;11050;52.222;20.916;2023-02-28T10:10:49;2.50;80.40
21778;DHT22;11050;52.222;20.916;2023-02-28T10:13:46;2.60;80.40
21778;DHT22;11050;52.222;20.916;2023-02-28T10:16:29;2.60;80.80
21778;DHT22;11050;52.222;20.916;2023-02-28T10:19:14;2.70;78.10
21778;DHT22;11050;52.222;20.916;2023-02-28T10:21:49;2.70;78.00
21778;DHT22;11050;52.222;20.916;2023-02-28T10:24:30;2.70;78.10
21778;DHT22;11050;52.222;20.916;2023-02-28T10:27:23;2.80;77.50
21778;DHT22;11050;52.222;20.916;2023-02-28T10:29:53;2.80;77.80
21778;DHT22;11050;52.222;20.916;2023-02-28T10:32:24;2.90;76.90
21778;DHT22;11050;52.222;20.916;2023-02-28T10:37:41;3.00;77.30
21778;DHT22;11050;52.222;20.916;2023-02-28T10:43:16;3.10;76.10
21778;DHT22;11050;52.222;20.916;2023-02-28T10:45:58;3.10;75.90
21778;DHT22;11050;52.222;20.916;2023-02-28T10:48:34;3.20;76.10
21778;DHT22;11050;52.222;20.916;2023-02-28T10:51:01;3.20;76.80
21778;DHT22;11050;52.222;20.916;2023-02-28T10:53:48;3.40;76.80
21778;DHT22;11050;52.222;20.916;2023-02-28T10:56:22;3.50;75.90
21778;DHT22;11050;52.222;20.916;2023-02-28T11:03:58;3.80;73.80
21778;DHT22;11050;52.222;20.916;2023-02-28T11:06:32;3.90;73.00
21778;DHT22;11050;52.222;20.916;2023-02-28T11:09:02;4.00;72.20
21778;DHT22;11050;52.222;20.916;2023-02-28T11:11:44;4.10;71.40
21778;DHT22;11050;52.222;20.916;2023-02-28T11:14:22;4.20;71.90
21778;DHT22;11050;52.222;20.916;2023-02-28T11:16:52;4.40;71.50
21778;DHT22;11050;52.222;20.916;2023-02-28T11:19:23;4.60;70.30
21778;DHT22;11050;52.222;20.916;2023-02-28T11:21:55;4.80;69.70
21778;DHT22;11050;52.222;20.916;2023-02-28T11:24:35;4.90;69.40
21778;DHT22;11050;52.222;20.916;2023-02-28T11:27:03;5.20;69.20
21778;DHT22;11050;52.222;20.916;2023-02-28T11:29:31;5.40;66.60
21778;DHT22;11050;52.222;20.916;2023-02-28T11:32:18;5.60;66.90
21778;DHT22;11050;52.222;20.916;2023-02-28T11:35:00;5.90;66.60
21778;DHT22;11050;52.222;20.916;2023-02-28T11:37:39;6.20;65.60
21778;DHT22;11050;52.222;20.916;2023-02-28T11:40:13;6.40;64.50
21778;DHT22;11050;52.222;20.916;2023-02-28T11:51:19;7.30;59.20
21778;DHT22;11050;52.222;20.916;2023-02-28T11:56:59;7.70;58.30
21778;DHT22;11050;52.222;20.916;2023-02-28T12:02:33;8.00;56.50
21778;DHT22;11050;52.222;20.916;2023-02-28T12:05:46;8.10;56.40
21778;DHT22;11050;52.222;20.916;2023-02-28T12:11:19;8.40;55.50
21778;DHT22;11050;52.222;20.916;2023-02-28T12:14:36;8.60;55.80
21778;DHT22;11050;52.222;20.916;2023-02-28T12:17:37;8.90;55.20
21778;DHT22;11050;52.222;20.916;2023-02-28T12:28:29;9.50;52.00
21778;DHT22;11050;52.222;20.916;2023-02-28T12:31:21;9.70;51.70
21778;DHT22;11050;52.222;20.916;2023-02-28T12:33:53;9.80;51.50
21778;DHT22;11050;52.222;20.916;2023-02-28T12:36:25;10.00;51.60
21778;DHT22;11050;52.222;20.916;2023-02-28T12:38:58;10.20;50.80
21778;DHT22;11050;52.222;20.916;2023-02-28T12:41:49;10.30;50.10
21778;DHT22;11050;52.222;20.916;2023-02-28T12:44:25;10.50;49.60
21778;DHT22;11050;52.222;20.916;2023-02-28T12:47:00;10.60;49.50
21778;DHT22;11050;52.222;20.916;2023-02-28T12:49:36;10.80;49.00
21778;DHT22;11050;52.222;20.916;2023-02-28T12:52:39;11.00;48.50
21778;DHT22;11050;52.222;20.916;2023-02-28T13:04:29;11.20;47.40
21778;DHT22;11050;52.222;20.916;2023-02-28T13:09:54;11.60;46.60
21778;DHT22;11050;52.222;20.916;2023-02-28T13:12:23;11.80;45.50
21778;DHT22;11050;52.222;20.916;2023-02-28T13:14:50;11.90;45.20
21778;DHT22;11050;52.222;20.916;2023-02-28T13:17:24;12.10;45.70
21778;DHT22;11050;52.222;20.916;2023-02-28T13:28:11;13.00;42.90
21778;DHT22;11050;52.222;20.916;2023-02-28T13:33:36;12.90;43.30
21778;DHT22;11050;52.222;20.916;2023-02-28T13:36:28;13.00;43.30
21778;DHT22;11050;52.222;20.916;2023-02-28T13:39:11;13.10;42.70
21778;DHT22;11050;52.222;20.916;2023-02-28T13:47:48;13.30;42.00
21778;DHT22;11050;52.222;20.916;2023-02-28T13:50:36;13.30;42.50
21778;DHT22;11050;52.222;20.916;2023-02-28T13:56:10;13.70;41.60
21778;DHT22;11050;52.222;20.916;2023-02-28T14:07:01;14.10;40.30
21778;DHT22;11050;52.222;20.916;2023-02-28T14:09:34;14.00;39.80
21778;DHT22;11050;52.222;20.916;2023-02-28T14:18:34;14.30;39.90
21778;DHT22;11050;52.222;20.916;2023-02-28T14:21:10;14.20;40.00
21778;DHT22;11050;52.222;20.916;2023-02-28T14:27:14;14.20;40.30
21778;DHT22;11050;52.222;20.916;2023-02-28T14:38:29;14.30;39.70
21778;DHT22;11050;52.222;20.916;2023-02-28T14:41:02;14.20;39.80
21778;DHT22;11050;52.222;20.916;2023-02-28T14:43:31;14.30;39.60
21778;DHT22;11050;52.222;20.916;2023-02-28T14:46:02;14.00;39.50
21778;DHT22;11050;52.222;20.916;2023-02-28T14:48:31;13.80;39.80
21778;DHT22;11050;52.222;20.916;2023-02-28T14:51:00;13.80;40.10
21778;DHT22;11050;52.222;20.916;2023-02-28T14:53:29;13.80;40.00
21778;DHT22;11050;52.222;20.916;2023-02-28T14:56:00;13.80;40.40
21778;DHT22;11050;52.222;20.916;2023-02-28T14:58:27;13.70;40.30
21778;DHT22;11050;52.222;20.916;2023-02-28T15:00:58;13.80;40.20
21778;DHT22;11050;52.222;20.916;2023-02-28T15:03:36;13.90;39.70
21778;DHT22;11050;52.222;20.916;2023-02-28T15:06:16;13.60;40.00
21778;DHT22;11050;52.222;20.916;2023-02-28T15:08:43;13.60;40.20
21778;DHT22;11050;52.222;20.916;2023-02-28T15:11:17;13.30;40.70
21778;DHT22;11050;52.222;20.916;2023-02-28T15:13:50;13.10;40.90
21778;DHT22;11050;52.222;20.916;2023-02-28T15:16:21;12.80;41.50
21778;DHT22;11050;52.222;20.916;2023-02-28T15:18:57;12.70;41.90
21778;DHT22;11050;52.222;20.916;2023-02-28T15:21:29;12.80;41.80
21778;DHT22;11050;52.222;20.916;2023-02-28T15:23:59;12.80;41.80
21778;DHT22;11050;52.222;20.916;2023-02-28T15:26:34;12.70;41.80
21778;DHT22;11050;52.222;20.916;2023-02-28T15:29:11;12.50;42.40
21778;DHT22;11050;52.222;20.916;2023-02-28T15:31:46;12.40;42.60
21778;DHT22;11050;52.222;20.916;2023-02-28T15:34:43;12.20;42.80
21778;DHT22;11050;52.222;20.916;2023-02-28T15:37:29;12.10;43.00
21778;DHT22;11050;52.222;20.916;2023-02-28T15:42:59;11.30;44.00
21778;DHT22;11050;52.222;20.916;2023-02-28T15:45:49;11.20;44.40
21778;DHT22;11050;52.222;20.916;2023-02-28T15:48:28;11.00;45.00
21778;DHT22;11050;52.222;20.916;2023-02-28T15:51:01;10.70;45.60
21778;DHT22;11050;52.222;20.916;2023-02-28T15:53:37;10.30;46.50
21778;DHT22;11050;52.222;20.916;2023-02-28T15:56:24;9.90;47.50
21778;DHT22;11050;52.222;20.916;2023-02-28T15:58:54;9.30;48.80
21778;DHT22;11050;52.222;20.916;2023-02-28T16:01:29;8.90;49.30
21778;DHT22;11050;52.222;20.916;2023-02-28T16:04:02;8.40;50.30
21778;DHT22;11050;52.222;20.916;2023-02-28T16:06:38;7.90;51.80
21778;DHT22;11050;52.222;20.916;2023-02-28T16:09:14;7.30;52.90
21778;DHT22;11050;52.222;20.916;2023-02-28T16:11:45;6.80;54.00
21778;DHT22;11050;52.222;20.916;2023-02-28T16:14:16;6.30;55.80
21778;DHT22;11050;52.222;20.916;2023-02-28T16:16:48;5.80;56.40
21778;DHT22;11050;52.222;20.916;2023-02-28T16:19:15;5.40;57.90
21778;DHT22;11050;52.222;20.916;2023-02-28T16:21:42;5.00;58.90
21778;DHT22;11050;52.222;20.916;2023-02-28T16:24:07;4.70;59.70
21778;DHT22;11050;52.222;20.916;2023-02-28T16:26:33;4.40;60.60
21778;DHT22;11050;52.222;20.916;2023-02-28T16:29:01;4.10;62.40
21778;DHT22;11050;52.222;20.916;2023-02-28T16:31:27;3.90;63.90
21778;DHT22;11050;52.222;20.916;2023-02-28T16:33:54;3.60;64.30
21778;DHT22;11050;52.222;20.916;2023-02-28T16:36:23;3.40;64.90
21778;DHT22;11050;52.222;20.916;2023-02-28T16:38:54;3.30;66.60
21778;DHT22;11050;52.222;20.916;2023-02-28T16:41:26;3.00;67.70
21778;DHT22;11050;52.222;20.916;2023-02-28T16:43:55;2.90;68.00
21778;DHT22;11050;52.222;20.916;2023-02-28T16:46:30;2.70;68.50
21778;DHT22;11050;52.222;20.916;2023-02-28T16:49:00;2.60;69.20
21778;DHT22;11050;52.222;20.916;2023-02-28T16:51:26;2.40;69.80
21778;DHT22;11050;52.222;20.916;2023-02-28T16:53:52;2.30;70.50
21778;DHT22;11050;52.222;20.916;2023-02-28T16:56:22;2.20;70.80
21778;DHT22;11050;52.222;20.916;2023-02-28T16:58:51;2.00;72.20
21778;DHT22;11050;52.222;20.916;2023-02-28T17:01:18;1.90;72.50
21778;DHT22;11050;52.222;20.916;2023-02-28T17:03:50;1.80;72.90
21778;DHT22;11050;52.222;20.916;2023-02-28T17:06:22;1.60;74.70
21778;DHT22;11050;52.222;20.916;2023-02-28T17:08:50;1.50;74.40
21778;DHT22;11050;52.222;20.916;2023-02-28T17:11:17;1.50;74.90
21778;DHT22;11050;52.222;20.916;2023-02-28T17:13:44;1.40;76.50
21778;DHT22;11050;52.222;20.916;2023-02-28T17:16:23;1.30;76.40
21778;DHT22;11050;52.222;20.916;2023-02-28T17:18:54;1.30;77.50
21778;DHT22;11050;52.222;20.916;2023-02-28T17:21:23;1.20;77.80
21778;DHT22;11050;52.222;20.916;2023-02-28T17:23:49;1.10;78.00
21778;DHT22;11050;52.222;20.916;2023-02-28T17:26:16;1.10;78.50
21778;DHT22;11050;52.222;20.916;2023-02-28T17:28:48;1.00;79.00
21778;DHT22;11050;52.222;20.916;2023-02-28T17:31:14;1.00;79.40
21778;DHT22;11050;52.222;20.916;2023-02-28T17:33:40;0.90;80.30
21778;DHT22;11050;52.222;20.916;2023-02-28T17:36:09;0.80;81.00
21778;DHT22;11050;52.222;20.916;2023-02-28T17:38:39;0.80;82.50
21778;DHT22;11050;52.222;20.916;2023-02-28T17:41:05;0.70;82.20
21778;DHT22;11050;52.222;20.916;2023-02-28T17:43:30;0.60;82.80
21778;DHT22;11050;52.222;20.916;2023-02-28T17:45:56;0.60;83.70
21778;DHT22;11050;52.222;20.916;2023-02-28T17:48:23;0.50;85.40
21778;DHT22;11050;52.222;20.916;2023-02-28T17:50:50;0.50;86.50
21778;DHT22;11050;52.222;20.916;2023-02-28T17:53:15;0.40;87.70
21778;DHT22;11050;52.222;20.916;2023-02-28T17:55:41;0.30;88.10
21778;DHT22;11050;52.222;20.916;2023-02-28T17:58:09;0.30;88.50
21778;DHT22;11050;52.222;20.916;2023-02-28T18:00:37;0.20;89.00
21778;DHT22;11050;52.222;20.916;2023-02-28T18:03:03;0.20;90.10
21778;DHT22;11050;52.222;20.916;2023-02-28T18:05:29;0.10;90.30
21778;DHT22;11050;52.222;20.916;2023-02-28T18:07:56;0.10;90.70